ADDS METAR Data INFO
IDs: Format: Raw Decoded Include TAF

Data at: 0233 UTC 26 Jul 2017

KE11 260215Z AUTO 17006KT 10SM CLR 31/15 A3008 RMK AO2 T03060147
KE11 260155Z AUTO 16007KT 10SM CLR 31/15 A3007 RMK AO2 T03120145
KE11 260135Z AUTO 17009KT 10SM CLR 32/15 A3008 RMK AO2 T03200146
KE11 260115Z AUTO 17009G15KT 10SM CLR 33/15 A3007 RMK AO2 T03270145
KE11 260055Z AUTO 17011G16KT 10SM CLR 33/14 A3006 RMK AO2 T03330143
KE11 260035Z AUTO 16009KT 10SM CLR 34/14 A3006 RMK AO2 T03380139
KE11 260015Z AUTO 18010KT 10SM SCT080 34/14 A3006 RMK AO2 LTG DSNT NW T03430142
KE11 252355Z AUTO 18011G18KT 10SM CLR 35/14 A3006 RMK AO2 T03470140 10366 20332
KE11 252335Z AUTO 16009G18KT 10SM CLR 35/14 A3006 RMK AO2 T03460136
KE11 252315Z AUTO 17011G18KT 10SM CLR 35/14 A3006 RMK AO2 T03480137
KE11 252255Z AUTO 16010G17KT 10SM CLR 36/14 A3006 RMK AO2 LTG DSNT SW T03560136
KE11 252235Z AUTO 16009G17KT 130V190 10SM CLR 36/13 A3006 RMK AO2 T03580129
KE11 252215Z AUTO 17014G21KT 10SM CLR 36/13 A3007 RMK AO2 LTG DSNT SW T03560126
KE11 252155Z AUTO 15013G21KT 10SM CLR 36/13 A3007 RMK AO2 T03570129
KE11 252135Z AUTO 19012G18KT 10SM CLR 36/13 A3007 RMK AO2 T03630130
KE11 252115Z AUTO 16014G21KT 10SM CLR 36/13 A3008 RMK AO2 T03580131
KE11 252055Z AUTO 18011G20KT 10SM CLR 36/13 A3008 RMK AO2 T03570129
KE11 252035Z AUTO 17010G19KT 10SM CLR 36/13 A3009 RMK AO2 T03570128
KE11 252015Z AUTO 13012G21KT 10SM CLR 36/13 A3009 RMK AO2 T03550128
KE11 251955Z AUTO 14012G18KT 10SM CLR 35/14 A3010 RMK AO2 T03540137
KE11 251935Z AUTO 17010G17KT 10SM CLR 35/14 A3010 RMK AO2 T03520138
KE11 251915Z AUTO 16010G19KT 130V200 10SM CLR 35/14 A3011 RMK AO2 T03450137
KE11 251855Z AUTO 16010G18KT 10SM CLR 35/13 A3012 RMK AO2 T03480131
KE11 251835Z AUTO 16007G16KT 10SM CLR 35/14 A3012 RMK AO2 T03460137
KE11 251815Z AUTO 15011G18KT 10SM CLR 34/13 A3012 RMK AO2 T03400134
KE11 251755Z AUTO 19008G15KT 10SM CLR 33/15 A3013 RMK AO2 T03330154 10335 20204
KE11 251735Z AUTO 20007G15KT 10SM CLR 33/15 A3013 RMK AO2 T03280150
KE11 251715Z AUTO 18008G15KT 10SM CLR 33/14 A3014 RMK AO2 T03260138
KE11 251655Z AUTO 21010G17KT 10SM CLR 32/14 A3014 RMK AO2 T03230143
KE11 251635Z AUTO 18010G17KT 10SM CLR 32/15 A3014 RMK AO2 T03160145
KE11 251615Z AUTO 18009G15KT 10SM CLR 31/15 A3014 RMK AO2 T03130149
KE11 251555Z AUTO 18007KT 10SM CLR 30/16 A3014 RMK AO2 T03020160
KE11 251535Z AUTO 17008KT 10SM CLR 29/16 A3014 RMK AO2 T02910156
KE11 251515Z AUTO 20011KT 10SM CLR 29/16 A3013 RMK AO2 T02850162
KE11 251455Z AUTO 19008KT 10SM CLR 26/17 A3014 RMK AO2 T02610167
KE11 251435Z AUTO 18008KT 10SM CLR 25/17 A3014 RMK AO2 T02540167
KE11 251415Z AUTO 19008KT 10SM CLR 25/17 A3014 RMK AO2 T02500169
KE11 251355Z AUTO 17009KT 10SM CLR 25/17 A3013 RMK AO2 T02490169
KE11 251335Z AUTO 18008KT 10SM CLR 25/17 A3013 RMK AO2 T02460168
KE11 251315Z AUTO 19009KT 10SM CLR 24/17 A3012 RMK AO2 T02400170
KE11 251255Z AUTO 18006KT 10SM CLR 23/17 A3011 RMK AO2 T02310170
KE11 251235Z AUTO 19005KT 10SM CLR 22/17 A3011 RMK AO2 T02180173
KE11 251215Z AUTO 19003KT 10SM CLR 21/18 A3011 RMK AO2 T02050176
KE11 251155Z AUTO 16004KT 10SM CLR 21/18 A3010 RMK AO2 T02050177 10240 20205
KE11 251135Z AUTO 16004KT 10SM CLR 21/18 A3010 RMK AO2 T02060176
KE11 251115Z AUTO 16004KT 10SM CLR 21/18 A3010 RMK AO2 T02080176
KE11 251055Z AUTO 16003KT 10SM CLR 21/18 A3009 RMK AO2 T02080176
KE11 251035Z AUTO 17003KT 10SM CLR 21/18 A3009 RMK AO2 T02100176
KE11 251015Z AUTO 16003KT 10SM CLR 21/18 A3009 RMK AO2 T02130176
KE11 250955Z AUTO 17004KT 10SM CLR 21/18 A3009 RMK AO2 T02120178
KE11 250935Z AUTO 15004KT 10SM CLR 21/18 A3008 RMK AO2 T02120176
KE11 250915Z AUTO 15004KT 10SM CLR 22/18 A3009 RMK AO2 T02150177
KE11 250855Z AUTO 15003KT 10SM CLR 22/18 A3009 RMK AO2 T02180177
KE11 250835Z AUTO 16003KT 10SM CLR 22/18 A3009 RMK AO2 T02210175
KE11 250815Z AUTO 00000KT 10SM CLR 22/18 A3008 RMK AO2 T02220175
KE11 250755Z AUTO 15004KT 10SM CLR 23/18 A3008 RMK AO2 T02260175
KE11 250735Z AUTO 17003KT 10SM CLR 23/17 A3009 RMK AO2 T02320174
KE11 250715Z AUTO 16004KT 10SM CLR 24/17 A3008 RMK AO2 T02350172
KE11 250655Z AUTO 17005KT 10SM CLR 24/17 A3009 RMK AO2 T02370172
KE11 250635Z AUTO 17006KT 10SM CLR 24/17 A3009 RMK AO2 T02400173
KE11 250615Z AUTO 16006KT 10SM CLR 24/18 A3009 RMK AO2 T02380177
KE11 250555Z AUTO 17005KT 10SM CLR 24/18 A3009 RMK AO2 T02370178 10328 20237
KE11 250535Z AUTO 16004KT 10SM CLR 24/18 A3009 RMK AO2 T02400178
KE11 250515Z AUTO 16003KT 10SM CLR 25/18 A3009 RMK AO2 T02450179
KE11 250455Z AUTO 14004KT 10SM CLR 25/18 A3008 RMK AO2 T02490180 403440223
KE11 250435Z AUTO 14005KT 10SM CLR 25/18 A3008 RMK AO2 T02530178
KE11 250415Z AUTO 14007KT 10SM CLR 26/18 A3008 RMK AO2 T02600177
KE11 250355Z AUTO 15009KT 10SM CLR 26/18 A3007 RMK AO2 LTG DSNT NW T02640176
KE11 250335Z AUTO 16012G20KT 10SM CLR 27/17 A3007 RMK AO2 T02720171
KE11 250315Z AUTO 16013G22KT 10SM SCT095 28/17 A3006 RMK AO2 LTG DSNT E AND NW T02790166
KE11 250255Z AUTO 13008KT 10SM BKN085 OVC110 29/17 A3005 RMK AO2 LTG DSNT E T02850170
KE11 250235Z AUTO 12011G15KT 10SM BKN085 29/17 A3003 RMK AO2 LTG DSNT E AND NW T02870170
KE11 250215Z AUTO 12010G17KT 10SM SCT095 29/17 A3003 RMK AO2 LTG DSNT NW T02860171
KE11 250155Z AUTO 12011G18KT 10SM SCT095 29/17 A3002 RMK AO2 T02870172
KE11 250135Z AUTO 12014G21KT 10SM CLR 29/18 A3001 RMK AO2 T02910175
KE11 250115Z AUTO 14006KT 10SM CLR 32/15 A2999 RMK AO2 T03200150
KE11 250055Z AUTO 15005KT 10SM CLR 33/14 A2998 RMK AO2 LTG DSNT SE T03270144
KE11 250035Z AUTO 15005KT 10SM SCT070 33/14 A2998 RMK AO2 LTG DSNT SE T03280139
KE11 250015Z AUTO 00000KT 10SM SCT070 SCT080 OVC100 33/13 A2998 RMK AO2 T03270134
KE11 242355Z AUTO 24010G15KT 10SM SCT060 SCT080 OVC100 33/15 A2998 RMK AO2 T03270147 10344 20316
KE11 242335Z AUTO 15004KT 10SM -RA SCT050 SCT070 OVC090 33/15 A2998 RMK AO2 T03270145
KE11 242315Z AUTO 16005KT 10SM SCT090 OVC110 33/14 A2998 RMK AO2 LTG DSNT W T03300142
KE11 242255Z AUTO 18007KT 10SM OVC110 33/14 A2998 RMK AO2 T03310140
KE11 242235Z AUTO 14005KT 10SM OVC100 33/14 A2998 RMK AO2 T03330142
KE11 242215Z AUTO 14008KT 10SM BKN100 34/14 A2998 RMK AO2 T03350135
KE11 242155Z AUTO 16008KT 10SM SCT080 SCT120 34/14 A2999 RMK AO2 T03350139
KE11 242135Z AUTO 14010G14KT 10SM SCT080 SCT100 BKN120 34/14 A2999 RMK AO2 LTG DSNT W T03390143
KE11 242115Z AUTO 16008G16KT 10SM BKN110 33/14 A3000 RMK AO2 T03290141
KE11 242055Z AUTO 20009KT 10SM SCT075 SCT080 OVC110 33/15 A3000 RMK AO2 T03270146
KE11 242035Z AUTO 14009KT 10SM SCT065 BKN080 BKN120 33/15 A3001 RMK AO2 LTG DSNT NW T03290153
KE11 242015Z AUTO 15008KT 10SM SCT065 SCT080 33/15 A3002 RMK AO2 T03280149
KE11 241955Z AUTO 19004KT 10SM SCT065 SCT110 33/16 A3003 RMK AO2 T03250156
KE11 241935Z AUTO 22005G14KT 10SM SCT110 33/16 A3004 RMK AO2 T03340160
KE11 241915Z AUTO 13007KT 10SM CLR 34/16 A3005 RMK AO2 T03360161
KE11 241855Z AUTO 17008KT 10SM CLR 33/16 A3006 RMK AO2 T03320163
KE11 241835Z AUTO 17007KT 10SM CLR 33/17 A3007 RMK AO2 T03250166
KE11 241815Z AUTO 22006KT 10SM CLR 32/17 A3007 RMK AO2 T03230167
KE11 241755Z AUTO 13006KT 10SM CLR 32/17 A3008 RMK AO2 T03150170 10316 20223
KE11 241735Z AUTO 17006KT 10SM CLR 31/17 A3008 RMK AO2 T03090166
KE11 241715Z AUTO 13009G14KT 10SM CLR 31/17 A3008 RMK AO2 T03090172
KE11 241655Z AUTO 16007KT 10SM CLR 30/16 A3009 RMK AO2 T03000161
KE11 241635Z AUTO 17009G15KT 140V200 10SM CLR 30/16 A3009 RMK AO2 T02990164
KE11 241615Z AUTO 16010KT 10SM CLR 30/17 A3009 RMK AO2 T02970166
KE11 241555Z AUTO 15011KT 10SM CLR 29/17 A3009 RMK AO2 T02920169
KE11 241535Z AUTO 15012KT 10SM CLR 29/17 A3009 RMK AO2 T02860168
KE11 241515Z AUTO 14009KT 10SM CLR 28/17 A3010 RMK AO2 T02780169
KE11 241455Z AUTO 14006KT 10SM CLR 27/18 A3010 RMK AO2 T02680175
KE11 241435Z AUTO 12007KT 10SM CLR 26/17 A3010 RMK AO2 T02630174